createdAt,value
2023-06-30T00:00:38.079Z,1.00
2023-06-30T00:03:05.420Z,1.00
2023-06-30T00:05:32.313Z,0.80
2023-06-30T00:08:00.160Z,0.80
2023-06-30T00:10:26.915Z,0.87
2023-06-30T00:12:53.465Z,0.90
2023-06-30T00:15:20.091Z,1.10
2023-06-30T00:17:49.562Z,0.90
2023-06-30T00:20:16.341Z,0.90
2023-06-30T00:22:43.139Z,1.00
2023-06-30T00:25:10.337Z,1.00
2023-06-30T00:27:37.476Z,0.90
2023-06-30T00:30:04.448Z,0.90
2023-06-30T00:32:32.882Z,1.10
2023-06-30T00:34:59.893Z,1.10
2023-06-30T00:37:26.528Z,1.00
2023-06-30T00:39:53.095Z,1.00
2023-06-30T00:42:19.690Z,1.00
2023-06-30T00:44:46.267Z,0.93
2023-06-30T00:47:12.985Z,1.00
2023-06-30T00:49:39.679Z,0.93
2023-06-30T00:52:06.509Z,1.00
2023-06-30T00:54:33.062Z,0.90
2023-06-30T00:56:59.638Z,0.80
2023-06-30T00:59:26.495Z,1.10
2023-06-30T01:02:06.134Z,1.10
2023-06-30T01:04:40.673Z,0.90
2023-06-30T01:07:15.634Z,1.27
2023-06-30T01:09:47.304Z,1.10
2023-06-30T01:12:13.868Z,0.80
2023-06-30T01:14:40.478Z,1.10
2023-06-30T01:17:07.140Z,1.00
2023-06-30T01:19:36.158Z,1.00
2023-06-30T01:22:50.687Z,1.13
2023-06-30T01:25:21.988Z,0.93
2023-06-30T01:27:50.288Z,1.17
2023-06-30T01:30:17.386Z,1.00
2023-06-30T01:32:44.388Z,1.00
2023-06-30T01:35:11.073Z,1.10
2023-06-30T01:37:37.594Z,1.00
2023-06-30T01:40:05.474Z,0.93
2023-06-30T01:42:32.057Z,0.80
2023-06-30T01:44:58.626Z,1.00
2023-06-30T01:47:25.469Z,1.00
2023-06-30T01:49:52.199Z,0.90
2023-06-30T01:52:19.050Z,1.00
2023-06-30T01:54:45.688Z,1.00
2023-06-30T01:57:12.549Z,0.97
2023-06-30T01:59:39.108Z,1.00
2023-06-30T02:02:06.086Z,1.00
2023-06-30T02:04:32.764Z,0.90
2023-06-30T02:06:59.360Z,0.90
2023-06-30T02:09:34.816Z,0.90
2023-06-30T02:12:10.375Z,1.10
2023-06-30T02:14:36.938Z,1.00
2023-06-30T02:17:03.628Z,1.10
2023-06-30T02:19:30.341Z,0.90
2023-06-30T02:21:56.905Z,1.00
2023-06-30T02:24:23.473Z,1.00
2023-06-30T02:26:50.062Z,0.90
2023-06-30T02:29:16.718Z,0.87
2023-06-30T02:31:43.401Z,1.00
2023-06-30T02:34:10.040Z,1.07
2023-06-30T02:36:36.587Z,0.90
2023-06-30T02:39:03.415Z,1.00
2023-06-30T02:41:29.959Z,1.00
2023-06-30T02:43:56.556Z,1.10
2023-06-30T02:46:23.230Z,1.00
2023-06-30T02:48:49.873Z,1.00
2023-06-30T02:51:16.422Z,0.90
2023-06-30T02:53:42.970Z,1.10
2023-06-30T02:56:09.489Z,1.00
2023-06-30T02:58:37.626Z,1.00
2023-06-30T03:01:06.799Z,0.98
2023-06-30T03:03:34.069Z,1.10
2023-06-30T03:06:00.900Z,1.00
2023-06-30T03:08:27.474Z,1.20
2023-06-30T03:10:54.140Z,1.00
2023-06-30T03:13:20.774Z,0.90
2023-06-30T03:15:47.750Z,0.90
2023-06-30T03:18:14.577Z,0.90
2023-06-30T03:20:41.145Z,0.90
2023-06-30T03:23:07.704Z,0.93
2023-06-30T03:25:34.271Z,1.03
2023-06-30T03:28:00.846Z,1.20
2023-06-30T03:30:27.410Z,0.90
2023-06-30T03:32:53.981Z,1.00
2023-06-30T03:35:20.616Z,1.02
2023-06-30T03:37:47.172Z,0.85
2023-06-30T03:40:13.897Z,1.10
2023-06-30T03:42:41.049Z,0.98
2023-06-30T03:45:08.383Z,1.10
2023-06-30T03:47:35.038Z,0.90
2023-06-30T03:50:01.696Z,1.00
2023-06-30T03:52:28.251Z,1.02
2023-06-30T03:54:54.947Z,1.30
2023-06-30T03:57:21.481Z,1.20
2023-06-30T03:59:48.152Z,1.27
2023-06-30T04:02:14.739Z,1.30
2023-06-30T04:04:41.596Z,1.40
2023-06-30T04:07:08.236Z,1.10
2023-06-30T04:09:34.856Z,1.40
2023-06-30T04:12:01.408Z,1.50
2023-06-30T04:14:28.283Z,1.23
2023-06-30T04:16:56.790Z,1.30
2023-06-30T04:19:23.596Z,1.50
2023-06-30T04:21:50.700Z,1.40
2023-06-30T04:24:17.259Z,1.30
2023-06-30T04:26:43.853Z,1.40
2023-06-30T04:29:10.409Z,1.30
2023-06-30T04:31:37.025Z,1.50
2023-06-30T04:34:03.715Z,1.53
2023-06-30T04:36:30.313Z,1.40
2023-06-30T04:38:57.192Z,1.40
2023-06-30T04:41:23.801Z,1.40
2023-06-30T04:43:50.467Z,1.57
2023-06-30T04:46:17.229Z,1.50
2023-06-30T04:48:43.846Z,1.40
2023-06-30T04:51:10.408Z,1.30
2023-06-30T04:53:37.100Z,1.70
2023-06-30T04:56:03.707Z,1.40
2023-06-30T04:58:30.285Z,1.50
2023-06-30T05:00:57.795Z,1.30
2023-06-30T05:03:24.568Z,1.47
2023-06-30T05:05:51.220Z,1.60
2023-06-30T05:08:17.816Z,1.50
2023-06-30T05:10:44.470Z,1.40
2023-06-30T05:13:11.432Z,1.50
2023-06-30T05:15:38.162Z,1.30
2023-06-30T05:18:07.098Z,1.50
2023-06-30T05:20:35.074Z,1.30
2023-06-30T05:23:01.985Z,1.80
2023-06-30T05:25:28.557Z,1.80
2023-06-30T05:27:55.621Z,1.80
2023-06-30T05:30:22.204Z,1.77
2023-06-30T05:32:48.813Z,1.70
2023-06-30T05:35:15.450Z,1.60
2023-06-30T05:37:42.055Z,1.73
2023-06-30T05:40:08.896Z,1.60
2023-06-30T05:42:35.516Z,1.67
2023-06-30T05:45:02.061Z,1.70
2023-06-30T05:47:28.703Z,1.77
2023-06-30T05:49:55.314Z,2.27
2023-06-30T05:52:25.994Z,2.10
2023-06-30T05:54:52.595Z,1.87
2023-06-30T05:57:19.213Z,2.20
2023-06-30T05:59:45.882Z,2.10
2023-06-30T06:02:12.494Z,1.97
2023-06-30T06:04:39.155Z,2.00
2023-06-30T06:07:06.663Z,2.37
2023-06-30T06:09:33.575Z,2.20
2023-06-30T06:12:02.100Z,2.17
2023-06-30T06:14:28.682Z,2.00
2023-06-30T06:16:55.350Z,2.10
2023-06-30T06:19:22.163Z,2.20
2023-06-30T06:21:48.844Z,2.10
2023-06-30T06:24:17.767Z,2.07
2023-06-30T06:26:44.448Z,2.40
2023-06-30T06:29:14.064Z,2.10
2023-06-30T06:31:40.754Z,2.00
2023-06-30T06:34:07.354Z,2.43
2023-06-30T06:36:33.922Z,2.10
2023-06-30T06:39:02.792Z,2.10
2023-06-30T06:41:30.411Z,2.20
2023-06-30T06:43:56.979Z,3.10
2023-06-30T06:46:23.600Z,2.73
2023-06-30T06:48:50.185Z,2.73
2023-06-30T06:51:16.801Z,2.80
2023-06-30T06:53:43.353Z,2.77
2023-06-30T06:56:09.918Z,2.43
2023-06-30T06:58:36.709Z,2.83
2023-06-30T07:01:03.437Z,2.80
2023-06-30T07:03:30.056Z,2.70
2023-06-30T07:05:59.790Z,2.60
2023-06-30T07:08:27.617Z,2.80
2023-06-30T07:10:54.326Z,2.83
2023-06-30T07:13:21.650Z,2.27
2023-06-30T07:15:51.638Z,2.43
2023-06-30T07:18:21.416Z,2.67
2023-06-30T07:20:52.990Z,2.40
2023-06-30T07:23:19.556Z,2.40
2023-06-30T07:25:46.781Z,2.53
2023-06-30T07:28:13.690Z,2.70
2023-06-30T07:30:45.427Z,2.40
2023-06-30T07:33:12.209Z,2.37
2023-06-30T07:35:38.822Z,2.60
2023-06-30T07:38:05.514Z,2.53
2023-06-30T07:40:45.781Z,2.50
2023-06-30T07:43:18.629Z,3.10
2023-06-30T07:45:45.396Z,3.63
2023-06-30T07:48:12.253Z,3.20
2023-06-30T07:50:39.305Z,3.27
2023-06-30T07:53:09.665Z,3.23
2023-06-30T07:55:36.375Z,3.40
2023-06-30T07:58:02.949Z,3.30
2023-06-30T08:00:30.405Z,3.30
2023-06-30T08:02:57.253Z,3.67
2023-06-30T08:05:24.214Z,3.40
2023-06-30T08:07:51.844Z,3.43
2023-06-30T08:10:19.077Z,3.50
2023-06-30T08:12:45.844Z,3.40
2023-06-30T08:15:12.414Z,3.37
2023-06-30T08:17:52.051Z,3.37
2023-06-30T08:20:25.182Z,3.57
2023-06-30T08:22:52.351Z,3.40
2023-06-30T08:25:22.947Z,3.20
2023-06-30T08:27:49.524Z,3.40
2023-06-30T08:30:16.541Z,3.70
2023-06-30T08:32:43.873Z,3.30
2023-06-30T08:35:10.533Z,3.47
2023-06-30T08:37:38.856Z,3.30
2023-06-30T08:40:06.608Z,3.33
2023-06-30T08:42:33.231Z,3.53
2023-06-30T08:44:59.880Z,3.30
2023-06-30T08:47:26.874Z,3.00
2023-06-30T08:49:56.538Z,3.33
2023-06-30T08:52:23.208Z,3.17
2023-06-30T08:54:49.786Z,3.37
2023-06-30T08:57:19.494Z,3.73
2023-06-30T08:59:46.105Z,3.30
2023-06-30T09:02:12.993Z,3.57
2023-06-30T09:04:40.782Z,3.20
2023-06-30T09:07:13.581Z,3.07
2023-06-30T09:09:43.063Z,3.23
2023-06-30T09:12:10.126Z,3.20
2023-06-30T09:14:37.484Z,3.13
2023-06-30T09:17:04.561Z,3.40
2023-06-30T09:19:31.486Z,3.20
2023-06-30T09:21:58.267Z,3.23
2023-06-30T09:24:24.989Z,3.17
2023-06-30T09:26:51.546Z,2.83
2023-06-30T09:29:19.298Z,3.40
2023-06-30T09:31:45.918Z,2.97
2023-06-30T09:34:13.913Z,3.20
2023-06-30T09:36:50.586Z,3.50
2023-06-30T09:39:17.301Z,3.07
2023-06-30T09:41:44.402Z,3.23
2023-06-30T09:44:11.650Z,3.30
2023-06-30T09:46:48.690Z,2.77
2023-06-30T09:49:30.072Z,3.33
2023-06-30T09:51:57.500Z,3.00
2023-06-30T09:54:39.262Z,3.10
2023-06-30T09:57:11.781Z,3.40
2023-06-30T09:59:38.512Z,3.37
2023-06-30T10:02:05.095Z,3.30
2023-06-30T10:04:31.810Z,3.17
2023-06-30T10:06:58.568Z,3.30
2023-06-30T10:09:25.767Z,3.43
2023-06-30T10:11:53.776Z,3.43
2023-06-30T10:14:30.984Z,3.53
2023-06-30T10:16:57.900Z,2.87
2023-06-30T10:19:24.805Z,3.10
2023-06-30T10:21:51.678Z,3.60
2023-06-30T10:24:18.997Z,3.73
2023-06-30T10:26:45.569Z,3.70
2023-06-30T10:29:12.119Z,3.80
2023-06-30T10:32:25.287Z,3.20
2023-06-30T10:34:52.071Z,3.33
2023-06-30T10:37:18.748Z,3.50
2023-06-30T10:39:45.364Z,3.13
2023-06-30T10:42:12.266Z,3.37
2023-06-30T10:44:45.099Z,3.03
2023-06-30T10:47:11.698Z,3.40
2023-06-30T10:49:41.863Z,3.40
2023-06-30T10:52:12.128Z,3.80
2023-06-30T10:54:43.082Z,3.50
2023-06-30T10:57:12.796Z,3.70
2023-06-30T10:59:49.542Z,3.10
2023-06-30T11:02:18.924Z,3.70
2023-06-30T11:04:49.163Z,3.20
2023-06-30T11:07:26.390Z,3.23
2023-06-30T11:09:52.903Z,3.30
2023-06-30T11:12:20.032Z,3.33
2023-06-30T11:15:01.935Z,3.40
2023-06-30T11:17:48.391Z,3.20
2023-06-30T11:20:15.378Z,2.90
2023-06-30T11:22:42.106Z,3.00
2023-06-30T11:25:12.097Z,3.40
2023-06-30T11:27:41.565Z,3.20
2023-06-30T11:30:08.489Z,3.20
2023-06-30T11:32:37.392Z,3.10
2023-06-30T11:35:08.814Z,2.80
2023-06-30T11:37:38.178Z,3.20
2023-06-30T11:40:07.172Z,3.00
2023-06-30T11:42:36.633Z,2.90
2023-06-30T11:45:06.080Z,3.17
2023-06-30T11:47:34.653Z,3.63
2023-06-30T11:50:11.165Z,3.20
2023-06-30T11:52:37.895Z,3.20
2023-06-30T11:55:12.172Z,2.73
2023-06-30T11:57:39.925Z,3.00
2023-06-30T12:00:09.749Z,2.90
2023-06-30T12:02:36.637Z,3.27
2023-06-30T12:05:05.737Z,3.00
2023-06-30T12:07:32.946Z,2.93
2023-06-30T12:10:01.036Z,2.90
2023-06-30T12:12:28.529Z,2.90
2023-06-30T12:14:55.744Z,2.97
2023-06-30T12:17:22.401Z,3.10
2023-06-30T12:19:49.011Z,3.10
2023-06-30T12:22:15.606Z,2.87
2023-06-30T12:25:45.059Z,3.23
2023-06-30T12:28:13.444Z,2.90
2023-06-30T12:30:40.358Z,3.27
2023-06-30T12:33:10.021Z,2.93
2023-06-30T12:35:39.764Z,2.90
2023-06-30T12:38:09.102Z,2.90
2023-06-30T12:40:35.865Z,2.80
2023-06-30T12:43:02.458Z,2.53
2023-06-30T12:45:29.102Z,2.73
2023-06-30T12:47:55.757Z,2.73
2023-06-30T12:50:22.375Z,2.60
2023-06-30T12:52:49.049Z,2.63
2023-06-30T12:55:15.659Z,2.57
2023-06-30T12:57:42.190Z,3.10
2023-06-30T13:00:10.599Z,2.73
2023-06-30T13:02:37.881Z,3.10
2023-06-30T13:05:05.390Z,2.70
2023-06-30T13:07:35.156Z,2.73
2023-06-30T13:10:02.943Z,2.50
2023-06-30T13:12:30.482Z,2.60
2023-06-30T13:14:57.982Z,2.80
2023-06-30T13:17:25.058Z,2.77
2023-06-30T13:19:51.709Z,2.80
2023-06-30T13:22:18.391Z,3.10
2023-06-30T13:24:45.101Z,3.70
2023-06-30T13:27:12.182Z,3.60
2023-06-30T13:29:46.221Z,3.87
2023-06-30T13:32:12.888Z,4.10
2023-06-30T13:34:39.563Z,3.37
2023-06-30T13:37:06.392Z,3.80
2023-06-30T13:39:32.973Z,4.50
2023-06-30T13:41:59.567Z,4.10
2023-06-30T13:44:26.638Z,4.30
2023-06-30T13:46:53.169Z,4.50
2023-06-30T13:49:19.808Z,4.23
2023-06-30T13:51:46.343Z,4.67
2023-06-30T13:54:12.911Z,4.90
2023-06-30T13:56:39.459Z,4.60
2023-06-30T13:59:06.028Z,4.60
2023-06-30T14:01:32.680Z,4.53
2023-06-30T14:03:59.276Z,4.53
2023-06-30T14:06:25.837Z,4.50
2023-06-30T14:08:52.400Z,4.50
2023-06-30T14:11:19.139Z,4.83
2023-06-30T14:13:46.431Z,4.57
2023-06-30T14:16:13.096Z,4.70
2023-06-30T14:18:39.659Z,4.90
2023-06-30T14:21:06.359Z,4.47
2023-06-30T14:23:33.005Z,4.90
2023-06-30T14:25:59.909Z,5.10
2023-06-30T14:28:26.516Z,4.90
2023-06-30T14:30:53.212Z,4.73
2023-06-30T14:33:19.790Z,5.27
2023-06-30T14:35:46.786Z,5.30
2023-06-30T14:38:13.427Z,5.03
2023-06-30T14:40:40.023Z,5.50
2023-06-30T14:43:06.598Z,5.40
2023-06-30T14:45:33.333Z,4.53
2023-06-30T14:48:00.016Z,5.60
2023-06-30T14:50:26.798Z,4.33
2023-06-30T14:52:53.480Z,4.40
2023-06-30T14:55:20.691Z,3.73
2023-06-30T14:57:47.923Z,3.73
2023-06-30T15:00:14.839Z,4.23
2023-06-30T15:02:41.498Z,3.70
2023-06-30T15:05:08.259Z,3.83
2023-06-30T15:07:35.943Z,3.50
2023-06-30T15:10:02.619Z,3.73
2023-06-30T15:12:29.222Z,3.70
2023-06-30T15:14:55.805Z,3.40
2023-06-30T15:17:22.389Z,3.67
2023-06-30T15:19:51.140Z,3.87
2023-06-30T15:22:18.216Z,3.20
2023-06-30T15:24:44.879Z,3.57
2023-06-30T15:27:11.439Z,3.73
2023-06-30T15:29:38.018Z,3.63
2023-06-30T15:32:04.815Z,3.53
2023-06-30T15:34:31.368Z,3.73
2023-06-30T15:36:58.123Z,4.00
2023-06-30T15:39:25.240Z,3.73
2023-06-30T15:41:51.845Z,3.60
2023-06-30T15:44:18.423Z,3.30
2023-06-30T15:46:45.276Z,3.40
2023-06-30T15:49:11.840Z,3.07
2023-06-30T15:51:38.436Z,3.17
2023-06-30T15:54:05.090Z,3.47
2023-06-30T15:56:31.752Z,3.80
2023-06-30T15:58:58.561Z,3.50
2023-06-30T16:01:25.197Z,3.10
2023-06-30T16:03:51.918Z,3.00
2023-06-30T16:06:18.598Z,3.37
2023-06-30T16:08:45.269Z,3.37
2023-06-30T16:11:12.267Z,3.20
2023-06-30T16:13:38.887Z,3.30
2023-06-30T16:16:05.759Z,3.23
2023-06-30T16:18:32.363Z,2.90
2023-06-30T16:20:58.908Z,2.80
2023-06-30T16:23:25.552Z,3.20
2023-06-30T16:25:54.162Z,3.20
2023-06-30T16:28:20.802Z,3.03
2023-06-30T16:30:47.336Z,3.47
2023-06-30T16:33:15.835Z,3.27
2023-06-30T16:35:42.508Z,3.13
2023-06-30T16:38:09.094Z,3.20
2023-06-30T16:40:35.676Z,3.07
2023-06-30T16:43:02.827Z,3.30
2023-06-30T16:45:29.389Z,2.97
2023-06-30T16:47:55.948Z,3.80
2023-06-30T16:50:22.729Z,3.07
2023-06-30T16:52:49.452Z,3.20
2023-06-30T16:55:16.121Z,3.87
2023-06-30T16:57:44.100Z,3.57
2023-06-30T17:00:11.263Z,3.27
2023-06-30T17:02:38.323Z,3.60
2023-06-30T17:05:05.698Z,3.27
2023-06-30T17:07:32.526Z,3.57
2023-06-30T17:09:59.230Z,3.50
2023-06-30T17:12:25.843Z,3.60
2023-06-30T17:14:52.446Z,3.43
2023-06-30T17:17:19.276Z,3.80
2023-06-30T17:19:45.994Z,4.10
2023-06-30T17:22:12.560Z,4.13
2023-06-30T17:24:39.139Z,4.13
2023-06-30T17:27:06.200Z,4.17
2023-06-30T17:29:32.838Z,3.90
2023-06-30T17:31:59.393Z,3.73
2023-06-30T17:34:25.948Z,4.07
2023-06-30T17:37:10.552Z,3.87
2023-06-30T17:39:37.190Z,4.50
2023-06-30T17:42:03.865Z,5.23
2023-06-30T17:44:32.076Z,4.50
2023-06-30T17:46:59.013Z,4.40
2023-06-30T17:49:29.520Z,4.63
2023-06-30T17:51:56.168Z,4.50
2023-06-30T17:54:26.532Z,4.53
2023-06-30T17:56:53.115Z,4.67
2023-06-30T17:59:19.687Z,5.40
2023-06-30T18:01:46.459Z,4.43
2023-06-30T18:04:13.310Z,4.70
2023-06-30T18:07:06.249Z,4.87
2023-06-30T18:09:33.702Z,4.77
2023-06-30T18:12:00.494Z,4.90
2023-06-30T18:14:27.627Z,5.00
2023-06-30T18:16:54.231Z,4.97
2023-06-30T18:19:21.412Z,4.90
2023-06-30T18:21:48.606Z,4.70
2023-06-30T18:24:15.515Z,5.00
2023-06-30T18:26:42.557Z,4.90
2023-06-30T18:29:09.302Z,4.80
2023-06-30T18:31:38.585Z,5.43
2023-06-30T18:34:05.741Z,4.87
2023-06-30T18:36:32.525Z,5.07
2023-06-30T18:39:00.950Z,5.37
2023-06-30T18:41:28.650Z,5.20
2023-06-30T18:43:55.286Z,5.60
2023-06-30T18:46:22.225Z,5.20
2023-06-30T18:48:48.991Z,4.90
2023-06-30T18:51:15.634Z,5.23
2023-06-30T18:53:42.185Z,4.90
2023-06-30T18:56:08.752Z,5.77
2023-06-30T18:58:35.317Z,5.20
2023-06-30T19:01:01.902Z,5.17
2023-06-30T19:03:28.624Z,5.40
2023-06-30T19:06:00.079Z,5.53
2023-06-30T19:08:29.629Z,5.30
2023-06-30T19:10:56.240Z,5.00
2023-06-30T19:13:23.064Z,5.00
2023-06-30T19:15:49.843Z,5.13
2023-06-30T19:18:20.386Z,5.23
2023-06-30T19:20:48.272Z,5.43
2023-06-30T19:23:15.036Z,5.60
2023-06-30T19:25:44.157Z,5.33
2023-06-30T19:28:11.033Z,5.53
2023-06-30T19:30:37.635Z,5.03
2023-06-30T19:33:04.921Z,5.00
2023-06-30T19:35:31.482Z,4.97
2023-06-30T19:37:58.063Z,4.80
2023-06-30T19:40:25.073Z,5.07
2023-06-30T19:42:52.015Z,5.10
2023-06-30T19:45:18.686Z,5.13
2023-06-30T19:47:46.584Z,5.07
2023-06-30T19:50:14.255Z,4.80
2023-06-30T19:52:40.846Z,5.50
2023-06-30T19:55:07.585Z,5.20
2023-06-30T19:57:34.275Z,4.47
2023-06-30T20:00:00.856Z,5.40
2023-06-30T20:02:27.555Z,5.10
2023-06-30T20:04:56.404Z,4.97
2023-06-30T20:07:23.032Z,4.80
2023-06-30T20:09:49.694Z,5.10
2023-06-30T20:12:16.301Z,5.00
2023-06-30T20:14:42.859Z,4.90
2023-06-30T20:17:10.316Z,4.83
2023-06-30T20:19:39.466Z,5.57
2023-06-30T20:22:06.769Z,4.87
2023-06-30T20:24:33.418Z,4.97
2023-06-30T20:27:01.198Z,5.20
2023-06-30T20:29:28.294Z,5.27
2023-06-30T20:31:55.007Z,5.20
2023-06-30T20:34:21.603Z,5.47
2023-06-30T20:36:48.154Z,4.83
2023-06-30T20:39:14.883Z,5.23
2023-06-30T20:41:41.447Z,4.93
2023-06-30T20:44:09.365Z,5.17
2023-06-30T20:46:36.038Z,5.30
2023-06-30T20:49:02.706Z,5.30
2023-06-30T20:51:29.338Z,4.90
2023-06-30T20:53:55.880Z,5.00
2023-06-30T20:56:22.442Z,5.03
2023-06-30T20:58:49.080Z,4.90
2023-06-30T21:01:15.687Z,5.37
2023-06-30T21:03:42.439Z,4.60
2023-06-30T21:06:09.260Z,5.30
2023-06-30T21:08:35.816Z,5.23
2023-06-30T21:11:02.440Z,5.00
2023-06-30T21:13:28.977Z,5.00
2023-06-30T21:15:57.070Z,4.97
2023-06-30T21:18:23.753Z,4.93
2023-06-30T21:20:50.323Z,4.97
2023-06-30T21:23:17.003Z,4.63
2023-06-30T21:25:43.950Z,4.90
2023-06-30T21:28:10.540Z,5.33
2023-06-30T21:30:38.410Z,4.47
2023-06-30T21:33:05.066Z,4.80
2023-06-30T21:35:32.531Z,4.70
2023-06-30T21:37:59.060Z,4.80
2023-06-30T21:40:25.675Z,4.80
2023-06-30T21:42:53.263Z,5.27
2023-06-30T21:45:19.942Z,4.73
2023-06-30T21:47:46.551Z,5.10
2023-06-30T21:50:13.214Z,4.70
2023-06-30T21:52:39.830Z,5.13
2023-06-30T21:55:06.805Z,5.23
2023-06-30T21:57:33.437Z,4.87
2023-06-30T22:00:00.090Z,4.83
2023-06-30T22:02:26.781Z,4.77
2023-06-30T22:04:53.609Z,4.90
2023-06-30T22:07:20.261Z,4.77
2023-06-30T22:09:46.856Z,4.53
2023-06-30T22:12:13.703Z,4.67
2023-06-30T22:14:40.339Z,5.27
2023-06-30T22:17:06.959Z,5.00
2023-06-30T22:19:35.118Z,5.17
2023-06-30T22:22:04.394Z,5.00
2023-06-30T22:24:30.994Z,4.73
2023-06-30T22:26:59.239Z,4.90
2023-06-30T22:29:25.907Z,4.70
2023-06-30T22:31:52.709Z,4.63
2023-06-30T22:34:19.515Z,5.07
2023-06-30T22:36:46.073Z,5.23
2023-06-30T22:39:12.697Z,4.63
2023-06-30T22:41:39.262Z,4.43
2023-06-30T22:44:05.855Z,4.50
2023-06-30T22:46:32.458Z,4.47
2023-06-30T22:49:04.255Z,5.07
2023-06-30T22:51:30.954Z,4.90
2023-06-30T22:53:57.532Z,4.60
2023-06-30T22:56:24.140Z,4.67
2023-06-30T22:58:51.829Z,4.73
2023-06-30T23:01:18.483Z,4.57
2023-06-30T23:03:45.169Z,4.33
2023-06-30T23:06:11.776Z,4.70
2023-06-30T23:08:38.430Z,4.70
2023-06-30T23:11:05.064Z,4.73
2023-06-30T23:13:31.647Z,4.83
2023-06-30T23:16:02.377Z,4.80
2023-06-30T23:18:38.418Z,5.10
2023-06-30T23:21:10.821Z,4.73
2023-06-30T23:23:41.944Z,5.00
2023-06-30T23:26:10.988Z,4.50
2023-06-30T23:28:38.602Z,4.70
2023-06-30T23:31:06.213Z,4.77
2023-06-30T23:33:32.931Z,4.53
2023-06-30T23:35:59.558Z,4.87
2023-06-30T23:38:26.692Z,4.53
2023-06-30T23:40:55.239Z,4.63
2023-06-30T23:43:21.836Z,4.50
2023-06-30T23:45:48.410Z,4.33
2023-06-30T23:48:15.083Z,5.27
2023-06-30T23:50:41.645Z,5.00
2023-06-30T23:53:08.223Z,4.90
2023-06-30T23:55:34.927Z,5.10
2023-06-30T23:58:01.542Z,4.50
